• Join FlightAware (Why Join?)
  • Login
  • US Flag 
04:04AM EDT


 

Airport Tracker/Info


-or-


 

Live Flight TrackerFlight Track Log ✈ SWA1046 ✈ 25-Apr-2013 ✈ KSTL - KDAL

Flight Track Log - Related Links

Times and Time Zones

All times are in EDT time to prevent confusion due to time zone crossing. See the SWA1046 flight status page for this flight to view local times or setup timezone preferences in your user account.

Time Position Orientation Groundspeed Altitude Reporting Facility
EDT Latitude Longitude Course Direction KTS MPH feet Rate Location/Type
02:23PM 38.7808 -90.4422 263° West 200 230 4,000  Level Kansas City Center
02:24PM 38.7625 -90.5161 252° West 228 262 6,600 3,120 Climbing Kansas City Center
02:25PM 38.7100 -90.5769 222° Southwest 255 293 10,500 3,060 Climbing Kansas City Center
02:27PM 38.6453 -90.6497 221° Southwest 305 351 13,100 3,240 Climbing Kansas City Center
02:28PM 38.5583 -90.7444 220° Southwest 336 387 17,200 3,240 Climbing Kansas City Center
02:29PM 38.3116 -90.8997 224° Southwest  Level Estimated
02:29PM 38.4822 -90.8281 221° Southwest 350 403 19,700  Level Kansas City Center
02:30PM 38.4008 -90.9156 220° Southwest 372 428 22,500 1,980 Climbing Kansas City Center
02:31PM 38.3169 -91.0056 220° Southwest 392 451 23,900 1,800 Climbing Kansas City Center
02:32PM 38.2344 -91.0969 221° Southwest 394 453 26,300 2,160 Climbing Kansas City Center
02:33PM 38.1467 -91.1908 220° Southwest 399 459 28,400 1,740 Climbing Kansas City Center
02:34PM 38.0414 -91.3028 220° Southwest 407 468 30,000 720 Climbing Kansas City Center
02:35PM 37.9558 -91.3956 221° Southwest 404 465 30,000  Level Kansas City Center
02:36PM 37.8703 -91.4872 220° Southwest 402 463 30,000  Level Kansas City Center
02:37PM 37.7850 -91.5797 221° Southwest 401 461 30,000  Level Kansas City Center
02:38PM 37.6992 -91.6711 220° Southwest 401 461 30,000  Level Kansas City Center
02:39PM 37.6117 -91.7636 220° Southwest 403 464 30,000  Level Kansas City Center
02:40PM 37.5289 -91.8592 222° Southwest 402 463 30,000  Level Kansas City Center
02:41PM 37.4486 -91.9547 223° Southwest 397 457 30,000  Level Kansas City Center
02:42PM 37.3514 -92.0697 223° Southwest 396 456 30,000  Level Kansas City Center
02:43PM 37.2706 -92.1642 223° Southwest 395 455 30,000  Level Kansas City Center
02:44PM 37.1889 -92.2583 223° Southwest 396 456 30,000  Level Kansas City Center
02:45PM 37.1078 -92.3519 223° Southwest 395 455 30,000  Level Kansas City Center
02:46PM 37.0258 -92.4467 223° Southwest 398 458 30,000  Level Kansas City Center
02:47PM 36.9442 -92.5400 222° Southwest 396 456 30,000  Level Kansas City Center
02:48PM 36.8614 -92.6344 222° Southwest 400 460 30,000  Level Kansas City Center
02:49PM 36.7600 -92.7444 221° Southwest 400 460 30,000  Level Kansas City Center
02:50PM 36.6758 -92.8406 222° Southwest 401 461 30,000  Level Memphis Center
02:51PM 36.5908 -92.9283 220° Southwest 401 461 30,000  Level Memphis Center
02:52PM 36.5075 -93.0214 222° Southwest 396 456 30,000  Level Memphis Center
02:53PM 36.4158 -93.1136 219° Southwest 408 470 30,000  Level Memphis Center
02:54PM 36.3306 -93.2036 220° Southwest 413 475 30,000  Level Memphis Center
02:55PM 36.2469 -93.2958 222° Southwest 413 475 30,000  Level Memphis Center
02:56PM 36.1700 -93.3753 220° Southwest 413 475 30,000  Level Memphis Center
02:57PM 36.0844 -93.4672 221° Southwest 407 468 30,000  Level Memphis Center
02:58PM 36.0008 -93.5564 221° Southwest 407 468 30,000  Level Memphis Center
02:59PM 35.9172 -93.6456 221° Southwest 407 468 30,000  Level Memphis Center
03:00PM 35.8336 -93.7342 221° Southwest 401 461 30,000  Level Memphis Center
03:01PM 35.7519 -93.8231 221° Southwest 401 461 30,000  Level Memphis Center
03:02PM 35.6681 -93.9089 220° Southwest 395 455 30,000  Level Memphis Center
03:03PM 35.5842 -93.9997 221° Southwest 395 455 30,000  Level Memphis Center
03:04PM 35.4981 -94.0906 221° Southwest 402 463 30,000  Level Memphis Center
03:05PM 35.4142 -94.1758 220° Southwest 396 456 30,000  Level Memphis Center
03:06PM 35.3322 -94.2636 221° Southwest 396 456 30,000  Level Memphis Center
03:07PM 35.2458 -94.3514 220° Southwest 396 456 30,000  Level Memphis Center
03:08PM 35.1639 -94.4389 221° Southwest 396 456 30,000  Level Memphis Center
03:09PM 35.0731 -94.5333 220° Southwest 396 456 30,000  Level Memphis Center
03:10PM 34.9994 -94.6028 218° Southwest 399 459 30,000  Level Fort Worth Center
03:11PM 34.9242 -94.6861 222° Southwest 392 451 30,000  Level Fort Worth Center
03:12PM 34.8383 -94.7700 219° Southwest 392 451 30,000  Level Fort Worth Center
03:13PM 34.7503 -94.8611 220° Southwest 404 465 30,000  Level Fort Worth Center
03:14PM 34.6497 -94.9322 210° Southwest 412 474 30,000 -60 Level Fort Worth Center
03:15PM 34.5444 -94.9908 205° Southwest 412 474 29,900 -900 Descending Fort Worth Center
03:16PM 34.4392 -95.0517 205° Southwest 419 482 28,300 -1,800 Descending Fort Worth Center
03:17PM 34.3317 -95.1097 204° Southwest 425 489 26,400 -2,100 Descending Fort Worth Center
03:18PM 34.2414 -95.1978 219° Southwest 426 490 24,200 -1,200 Descending Fort Worth Center
03:19PM 34.1678 -95.2875 225° Southwest 405 466 24,000 -120 Descending Fort Worth Center
03:20PM 34.0961 -95.3694 223° Southwest 383 441 24,000  Level Fort Worth Center
03:21PM 34.0244 -95.4564 225° Southwest 368 423 24,000 2,940 Level Fort Worth Center
03:22PM 33.9569 -95.5331 223° Southwest 353 406 30,000 -1,380 Climbing Fort Worth Center
03:23PM 33.8953 -95.6067 225° Southwest 339 390 21,300 -5,580 Descending Fort Worth Center
03:24PM 33.8317 -95.6806 224° Southwest 325 374 19,000 -1,980 Descending Fort Worth Center
03:25PM 33.7681 -95.7544 224° Southwest 320 368 17,400 -1,740 Descending Fort Worth Center
03:26PM 33.7083 -95.8256 225° Southwest 310 357 15,600 -1,860 Descending Fort Worth Center
03:27PM 33.6467 -95.8939 223° Southwest 310 357 13,800 -1,740 Descending Fort Worth Center
03:28PM 33.5869 -95.9622 224° Southwest 310 357 12,200 -1,740 Descending Fort Worth Center
03:29PM 33.5272 -96.0306 224° Southwest 305 351 10,400 -1,140 Descending Fort Worth Center
03:30PM 33.4714 -96.0936 223° Southwest 300 345 10,000 -240 Descending Fort Worth Center
03:31PM 33.4178 -96.1567 224° Southwest 284 327 10,000 -300 Level Fort Worth Center
03:32PM 33.3622 -96.2197 223° Southwest 278 320 9,500 -540 Descending Fort Worth Center
03:33PM 33.3083 -96.2825 224° Southwest 278 320 9,000 -300 Descending Fort Worth Center
03:34PM 33.2589 -96.3428 226° Southwest 268 308 9,000 -240 Level Fort Worth Center
03:35PM 33.2156 -96.4103 233° Southwest 268 308 8,600 -660 Descending Fort Worth Center
03:36PM 33.1681 -96.4803 231° Southwest 268 308 7,700 -1,020 Descending Fort Worth Center
03:37PM 33.1331 -96.5600 242° Southwest 268 308 6,600 -1,080 Descending Fort Worth Center
03:38PM 33.0983 -96.6397 243° Southwest 268 308 5,600 -1,200 Descending Fort Worth Center
03:39PM 33.0631 -96.7194 242° Southwest 268 308 4,300 -840 Descending Fort Worth Center
03:40PM 33.0175 -96.7917 233° Southwest 273 314 4,000 -180 Descending Fort Worth Center
03:41PM 32.9783 -96.8539 233° Southwest 267 307 4,000 -180 Level Fort Worth Center
03:41PM 32.9667 -96.8667 223° Southwest 216 249 3,800 -1,200 Descending Dallas / Fort Worth TRACON
03:42PM 32.9333 -96.9000 220° Southwest 192 221 2,600 -1,200 Descending Dallas / Fort Worth TRACON
03:43PM 32.9000 -96.9000 180° South 142 163 1,600 -960 Descending Dallas / Fort Worth TRACON
03:44PM 32.8667 -96.8667 140° Southeast 135 155 800 -900 Descending Dallas / Fort Worth TRACON
03:46PM 32.8471 -96.8518 157° South  Level Estimated
03:53PM 32.8471 -96.8518 157° South  Level Estimated